sensor_id;sensor_type;location;lat;lon;timestamp;P1;durP1;ratioP1;P2;durP2;ratioP2
47603;SDS011;33326;51.116;6.900;2022-10-16T00:01:58;4.80;;;2.22;;
47603;SDS011;33326;51.116;6.900;2022-10-16T00:07:00;5.72;;;2.63;;
47603;SDS011;33326;51.116;6.900;2022-10-16T00:12:04;6.55;;;2.75;;
47603;SDS011;33326;51.116;6.900;2022-10-16T00:17:10;6.03;;;3.20;;
47603;SDS011;33326;51.116;6.900;2022-10-16T00:22:13;7.53;;;2.65;;
47603;SDS011;33326;51.116;6.900;2022-10-16T00:27:15;6.97;;;2.80;;
47603;SDS011;33326;51.116;6.900;2022-10-16T00:32:18;3.92;;;2.42;;
47603;SDS011;33326;51.116;6.900;2022-10-16T00:37:21;7.57;;;2.97;;
47603;SDS011;33326;51.116;6.900;2022-10-16T00:42:23;4.60;;;2.85;;
47603;SDS011;33326;51.116;6.900;2022-10-16T00:47:28;4.90;;;2.80;;
47603;SDS011;33326;51.116;6.900;2022-10-16T00:52:32;3.17;;;2.40;;
47603;SDS011;33326;51.116;6.900;2022-10-16T00:57:34;3.63;;;2.70;;
47603;SDS011;33326;51.116;6.900;2022-10-16T01:02:38;4.20;;;2.60;;
47603;SDS011;33326;51.116;6.900;2022-10-16T01:07:42;7.13;;;2.20;;
47603;SDS011;33326;51.116;6.900;2022-10-16T01:12:51;4.60;;;2.30;;
47603;SDS011;33326;51.116;6.900;2022-10-16T01:18:01;5.75;;;2.60;;
47603;SDS011;33326;51.116;6.900;2022-10-16T01:23:14;4.30;;;2.00;;
47603;SDS011;33326;51.116;6.900;2022-10-16T01:28:25;3.90;;;2.22;;
47603;SDS011;33326;51.116;6.900;2022-10-16T01:33:33;6.10;;;2.47;;
47603;SDS011;33326;51.116;6.900;2022-10-16T01:38:40;3.85;;;2.40;;
47603;SDS011;33326;51.116;6.900;2022-10-16T01:43:46;3.45;;;2.20;;
47603;SDS011;33326;51.116;6.900;2022-10-16T01:48:54;3.38;;;2.58;;
47603;SDS011;33326;51.116;6.900;2022-10-16T01:53:57;3.40;;;2.75;;
47603;SDS011;33326;51.116;6.900;2022-10-16T01:59:03;4.55;;;3.08;;
47603;SDS011;33326;51.116;6.900;2022-10-16T02:04:11;4.72;;;3.33;;
47603;SDS011;33326;51.116;6.900;2022-10-16T02:09:16;4.30;;;3.35;;
47603;SDS011;33326;51.116;6.900;2022-10-16T02:14:20;5.55;;;3.13;;
47603;SDS011;33326;51.116;6.900;2022-10-16T02:19:24;5.75;;;3.10;;
47603;SDS011;33326;51.116;6.900;2022-10-16T02:24:27;3.15;;;2.78;;
47603;SDS011;33326;51.116;6.900;2022-10-16T02:29:38;6.82;;;3.00;;
47603;SDS011;33326;51.116;6.900;2022-10-16T02:34:44;4.55;;;2.60;;
47603;SDS011;33326;51.116;6.900;2022-10-16T02:39:50;4.78;;;2.67;;
47603;SDS011;33326;51.116;6.900;2022-10-16T02:44:54;3.88;;;2.60;;
47603;SDS011;33326;51.116;6.900;2022-10-16T02:49:56;3.25;;;2.88;;
47603;SDS011;33326;51.116;6.900;2022-10-16T02:54:58;3.80;;;2.95;;
47603;SDS011;33326;51.116;6.900;2022-10-16T03:00:02;5.78;;;2.67;;
47603;SDS011;33326;51.116;6.900;2022-10-16T03:05:05;3.30;;;2.47;;
47603;SDS011;33326;51.116;6.900;2022-10-16T03:10:08;6.10;;;2.10;;
47603;SDS011;33326;51.116;6.900;2022-10-16T03:15:11;4.57;;;2.20;;
47603;SDS011;33326;51.116;6.900;2022-10-16T03:20:13;3.90;;;1.83;;
47603;SDS011;33326;51.116;6.900;2022-10-16T03:25:15;3.35;;;2.33;;
47603;SDS011;33326;51.116;6.900;2022-10-16T03:30:19;4.85;;;2.00;;
47603;SDS011;33326;51.116;6.900;2022-10-16T03:35:22;2.33;;;1.90;;
47603;SDS011;33326;51.116;6.900;2022-10-16T03:40:25;2.13;;;1.73;;
47603;SDS011;33326;51.116;6.900;2022-10-16T03:45:29;2.70;;;1.80;;
47603;SDS011;33326;51.116;6.900;2022-10-16T03:50:33;3.20;;;2.00;;
47603;SDS011;33326;51.116;6.900;2022-10-16T03:55:36;2.58;;;1.55;;
47603;SDS011;33326;51.116;6.900;2022-10-16T04:00:41;3.58;;;2.05;;
47603;SDS011;33326;51.116;6.900;2022-10-16T04:05:44;3.13;;;1.92;;
47603;SDS011;33326;51.116;6.900;2022-10-16T04:10:46;5.53;;;1.40;;
47603;SDS011;33326;51.116;6.900;2022-10-16T04:15:50;3.70;;;1.50;;
47603;SDS011;33326;51.116;6.900;2022-10-16T04:20:52;3.10;;;1.50;;
47603;SDS011;33326;51.116;6.900;2022-10-16T04:25:54;2.40;;;1.40;;
47603;SDS011;33326;51.116;6.900;2022-10-16T04:30:58;6.03;;;1.42;;
47603;SDS011;33326;51.116;6.900;2022-10-16T04:36:00;1.55;;;1.17;;
47603;SDS011;33326;51.116;6.900;2022-10-16T04:41:03;5.45;;;1.88;;
47603;SDS011;33326;51.116;6.900;2022-10-16T04:46:07;5.82;;;1.65;;
47603;SDS011;33326;51.116;6.900;2022-10-16T04:51:10;1.63;;;1.50;;
47603;SDS011;33326;51.116;6.900;2022-10-16T04:56:12;2.35;;;1.52;;
47603;SDS011;33326;51.116;6.900;2022-10-16T05:01:17;1.55;;;1.40;;
47603;SDS011;33326;51.116;6.900;2022-10-16T05:06:19;3.83;;;1.45;;
47603;SDS011;33326;51.116;6.900;2022-10-16T05:11:21;1.40;;;1.30;;
47603;SDS011;33326;51.116;6.900;2022-10-16T05:16:25;2.88;;;1.60;;
47603;SDS011;33326;51.116;6.900;2022-10-16T05:21:27;2.33;;;1.27;;
47603;SDS011;33326;51.116;6.900;2022-10-16T05:26:29;2.55;;;1.50;;
47603;SDS011;33326;51.116;6.900;2022-10-16T05:31:36;1.98;;;1.50;;
47603;SDS011;33326;51.116;6.900;2022-10-16T05:36:38;2.63;;;1.70;;
47603;SDS011;33326;51.116;6.900;2022-10-16T05:41:41;3.15;;;2.00;;
47603;SDS011;33326;51.116;6.900;2022-10-16T05:46:47;5.35;;;2.15;;
47603;SDS011;33326;51.116;6.900;2022-10-16T05:51:53;5.20;;;1.98;;
47603;SDS011;33326;51.116;6.900;2022-10-16T05:56:55;2.75;;;2.25;;
47603;SDS011;33326;51.116;6.900;2022-10-16T06:01:58;4.72;;;1.92;;
47603;SDS011;33326;51.116;6.900;2022-10-16T06:07:01;2.90;;;2.22;;
47603;SDS011;33326;51.116;6.900;2022-10-16T06:12:03;2.58;;;2.28;;
47603;SDS011;33326;51.116;6.900;2022-10-16T06:17:07;4.65;;;2.30;;
47603;SDS011;33326;51.116;6.900;2022-10-16T06:22:09;3.35;;;2.35;;
47603;SDS011;33326;51.116;6.900;2022-10-16T06:27:12;4.45;;;3.22;;
47603;SDS011;33326;51.116;6.900;2022-10-16T06:32:19;3.05;;;2.50;;
47603;SDS011;33326;51.116;6.900;2022-10-16T06:37:21;6.10;;;2.90;;
47603;SDS011;33326;51.116;6.900;2022-10-16T06:42:25;5.70;;;2.90;;
47603;SDS011;33326;51.116;6.900;2022-10-16T06:47:33;4.72;;;2.80;;
47603;SDS011;33326;51.116;6.900;2022-10-16T06:52:35;4.10;;;2.53;;
47603;SDS011;33326;51.116;6.900;2022-10-16T06:57:37;3.42;;;2.63;;
47603;SDS011;33326;51.116;6.900;2022-10-16T07:02:41;3.03;;;2.60;;
47603;SDS011;33326;51.116;6.900;2022-10-16T07:07:43;5.35;;;2.55;;
47603;SDS011;33326;51.116;6.900;2022-10-16T07:12:46;5.97;;;2.47;;
47603;SDS011;33326;51.116;6.900;2022-10-16T07:17:54;5.75;;;3.13;;
47603;SDS011;33326;51.116;6.900;2022-10-16T07:22:56;7.88;;;3.08;;
47603;SDS011;33326;51.116;6.900;2022-10-16T07:27:59;3.40;;;2.65;;
47603;SDS011;33326;51.116;6.900;2022-10-16T07:33:03;4.47;;;2.50;;
47603;SDS011;33326;51.116;6.900;2022-10-16T07:38:06;3.72;;;2.15;;
47603;SDS011;33326;51.116;6.900;2022-10-16T07:43:11;3.25;;;2.20;;
47603;SDS011;33326;51.116;6.900;2022-10-16T07:48:17;3.08;;;1.92;;
47603;SDS011;33326;51.116;6.900;2022-10-16T07:53:20;2.92;;;2.22;;
47603;SDS011;33326;51.116;6.900;2022-10-16T07:58:26;3.10;;;1.95;;
47603;SDS011;33326;51.116;6.900;2022-10-16T08:03:32;5.40;;;1.90;;
47603;SDS011;33326;51.116;6.900;2022-10-16T08:08:35;6.55;;;1.42;;
47603;SDS011;33326;51.116;6.900;2022-10-16T08:13:37;2.45;;;1.60;;
47603;SDS011;33326;51.116;6.900;2022-10-16T08:18:41;2.00;;;1.20;;
47603;SDS011;33326;51.116;6.900;2022-10-16T08:23:43;3.78;;;1.42;;
47603;SDS011;33326;51.116;6.900;2022-10-16T08:28:45;2.55;;;1.30;;
47603;SDS011;33326;51.116;6.900;2022-10-16T08:33:58;4.22;;;1.40;;
47603;SDS011;33326;51.116;6.900;2022-10-16T08:39:00;3.45;;;1.80;;
47603;SDS011;33326;51.116;6.900;2022-10-16T08:44:06;5.13;;;1.75;;
47603;SDS011;33326;51.116;6.900;2022-10-16T08:49:28;4.57;;;1.48;;
47603;SDS011;33326;51.116;6.900;2022-10-16T08:54:32;5.88;;;1.30;;
47603;SDS011;33326;51.116;6.900;2022-10-16T08:59:40;4.07;;;1.30;;
47603;SDS011;33326;51.116;6.900;2022-10-16T09:04:50;2.30;;;1.02;;
47603;SDS011;33326;51.116;6.900;2022-10-16T09:10:09;4.40;;;1.25;;
47603;SDS011;33326;51.116;6.900;2022-10-16T09:15:29;2.03;;;1.48;;
47603;SDS011;33326;51.116;6.900;2022-10-16T09:20:41;3.13;;;1.02;;
47603;SDS011;33326;51.116;6.900;2022-10-16T09:25:50;2.00;;;0.80;;
47603;SDS011;33326;51.116;6.900;2022-10-16T09:30:52;2.40;;;1.05;;
47603;SDS011;33326;51.116;6.900;2022-10-16T09:35:56;3.95;;;1.10;;
47603;SDS011;33326;51.116;6.900;2022-10-16T09:40:59;4.60;;;1.10;;
47603;SDS011;33326;51.116;6.900;2022-10-16T09:46:06;3.70;;;1.27;;
47603;SDS011;33326;51.116;6.900;2022-10-16T09:51:16;5.95;;;1.58;;
47603;SDS011;33326;51.116;6.900;2022-10-16T09:56:21;5.85;;;1.33;;
47603;SDS011;33326;51.116;6.900;2022-10-16T10:01:29;3.08;;;0.88;;
47603;SDS011;33326;51.116;6.900;2022-10-16T10:06:40;3.83;;;1.27;;
47603;SDS011;33326;51.116;6.900;2022-10-16T10:11:49;3.75;;;0.98;;
47603;SDS011;33326;51.116;6.900;2022-10-16T10:17:01;3.13;;;1.00;;
47603;SDS011;33326;51.116;6.900;2022-10-16T10:22:17;2.38;;;0.93;;
47603;SDS011;33326;51.116;6.900;2022-10-16T10:27:44;3.22;;;0.93;;
47603;SDS011;33326;51.116;6.900;2022-10-16T10:33:07;6.05;;;1.02;;
47603;SDS011;33326;51.116;6.900;2022-10-16T10:38:24;2.13;;;0.90;;
47603;SDS011;33326;51.116;6.900;2022-10-16T10:43:43;3.60;;;1.25;;
47603;SDS011;33326;51.116;6.900;2022-10-16T10:49:00;3.53;;;1.02;;
47603;SDS011;33326;51.116;6.900;2022-10-16T10:54:16;3.60;;;0.90;;
47603;SDS011;33326;51.116;6.900;2022-10-16T10:59:32;3.80;;;1.08;;
47603;SDS011;33326;51.116;6.900;2022-10-16T11:05:17;2.65;;;1.00;;
47603;SDS011;33326;51.116;6.900;2022-10-16T11:10:44;3.03;;;0.85;;
47603;SDS011;33326;51.116;6.900;2022-10-16T11:15:51;3.22;;;0.90;;
47603;SDS011;33326;51.116;6.900;2022-10-16T11:21:01;2.25;;;0.73;;
47603;SDS011;33326;51.116;6.900;2022-10-16T11:26:11;4.68;;;0.93;;
47603;SDS011;33326;51.116;6.900;2022-10-16T11:36:28;2.22;;;0.88;;
47603;SDS011;33326;51.116;6.900;2022-10-16T11:47:05;3.17;;;0.77;;
47603;SDS011;33326;51.116;6.900;2022-10-16T11:52:48;2.88;;;0.77;;
47603;SDS011;33326;51.116;6.900;2022-10-16T11:58:08;3.75;;;0.73;;
47603;SDS011;33326;51.116;6.900;2022-10-16T12:03:28;2.53;;;1.10;;
47603;SDS011;33326;51.116;6.900;2022-10-16T12:08:42;3.90;;;0.70;;
47603;SDS011;33326;51.116;6.900;2022-10-16T12:13:51;2.03;;;0.80;;
47603;SDS011;33326;51.116;6.900;2022-10-16T12:19:12;3.72;;;1.00;;
47603;SDS011;33326;51.116;6.900;2022-10-16T12:24:21;4.20;;;1.13;;
47603;SDS011;33326;51.116;6.900;2022-10-16T12:29:39;2.30;;;0.80;;
47603;SDS011;33326;51.116;6.900;2022-10-16T12:35:02;4.35;;;0.90;;
47603;SDS011;33326;51.116;6.900;2022-10-16T12:40:11;2.08;;;0.73;;
47603;SDS011;33326;51.116;6.900;2022-10-16T12:45:26;2.65;;;0.82;;
47603;SDS011;33326;51.116;6.900;2022-10-16T12:50:34;3.22;;;0.85;;
47603;SDS011;33326;51.116;6.900;2022-10-16T12:55:42;2.17;;;0.80;;
47603;SDS011;33326;51.116;6.900;2022-10-16T13:12:06;1.27;;;0.50;;
47603;SDS011;33326;51.116;6.900;2022-10-16T13:17:32;2.90;;;0.60;;
47603;SDS011;33326;51.116;6.900;2022-10-16T13:22:56;2.67;;;0.57;;
47603;SDS011;33326;51.116;6.900;2022-10-16T13:28:06;2.95;;;0.60;;
47603;SDS011;33326;51.116;6.900;2022-10-16T13:33:14;2.20;;;0.65;;
47603;SDS011;33326;51.116;6.900;2022-10-16T13:38:31;3.60;;;0.77;;
47603;SDS011;33326;51.116;6.900;2022-10-16T13:43:41;2.42;;;0.65;;
47603;SDS011;33326;51.116;6.900;2022-10-16T13:54:07;1.67;;;0.45;;
47603;SDS011;33326;51.116;6.900;2022-10-16T13:59:23;2.25;;;0.70;;
47603;SDS011;33326;51.116;6.900;2022-10-16T14:04:28;3.67;;;1.00;;
47603;SDS011;33326;51.116;6.900;2022-10-16T14:09:35;5.95;;;0.60;;
47603;SDS011;33326;51.116;6.900;2022-10-16T14:14:40;2.25;;;0.82;;
47603;SDS011;33326;51.116;6.900;2022-10-16T14:19:45;3.65;;;0.60;;
47603;SDS011;33326;51.116;6.900;2022-10-16T14:24:50;2.28;;;0.75;;
47603;SDS011;33326;51.116;6.900;2022-10-16T14:30:03;3.13;;;0.70;;
47603;SDS011;33326;51.116;6.900;2022-10-16T14:35:23;4.65;;;1.00;;
47603;SDS011;33326;51.116;6.900;2022-10-16T14:40:31;5.95;;;0.85;;
47603;SDS011;33326;51.116;6.900;2022-10-16T14:45:34;6.25;;;0.90;;
47603;SDS011;33326;51.116;6.900;2022-10-16T14:50:42;1.95;;;0.60;;
47603;SDS011;33326;51.116;6.900;2022-10-16T14:55:45;5.00;;;0.90;;
47603;SDS011;33326;51.116;6.900;2022-10-16T15:00:51;3.13;;;1.00;;
47603;SDS011;33326;51.116;6.900;2022-10-16T15:05:53;2.10;;;0.90;;
47603;SDS011;33326;51.116;6.900;2022-10-16T15:10:56;4.28;;;1.10;;
47603;SDS011;33326;51.116;6.900;2022-10-16T15:15:58;2.95;;;0.98;;
47603;SDS011;33326;51.116;6.900;2022-10-16T15:21:01;3.25;;;0.98;;
47603;SDS011;33326;51.116;6.900;2022-10-16T15:26:04;2.97;;;1.40;;
47603;SDS011;33326;51.116;6.900;2022-10-16T15:31:06;2.55;;;1.20;;
47603;SDS011;33326;51.116;6.900;2022-10-16T15:36:08;2.97;;;0.98;;
47603;SDS011;33326;51.116;6.900;2022-10-16T15:41:12;3.13;;;1.40;;
47603;SDS011;33326;51.116;6.900;2022-10-16T15:46:17;3.90;;;1.52;;
47603;SDS011;33326;51.116;6.900;2022-10-16T15:51:20;2.22;;;1.27;;
47603;SDS011;33326;51.116;6.900;2022-10-16T15:56:23;3.50;;;1.20;;
47603;SDS011;33326;51.116;6.900;2022-10-16T16:01:26;2.75;;;1.00;;
47603;SDS011;33326;51.116;6.900;2022-10-16T16:06:29;1.83;;;0.90;;
47603;SDS011;33326;51.116;6.900;2022-10-16T16:11:32;3.70;;;1.00;;
47603;SDS011;33326;51.116;6.900;2022-10-16T16:16:37;2.95;;;1.30;;
47603;SDS011;33326;51.116;6.900;2022-10-16T16:21:39;5.15;;;1.40;;
47603;SDS011;33326;51.116;6.900;2022-10-16T16:26:43;2.13;;;0.80;;
47603;SDS011;33326;51.116;6.900;2022-10-16T16:31:45;2.35;;;0.90;;
47603;SDS011;33326;51.116;6.900;2022-10-16T16:36:47;2.05;;;1.30;;
47603;SDS011;33326;51.116;6.900;2022-10-16T16:41:54;5.28;;;1.20;;
47603;SDS011;33326;51.116;6.900;2022-10-16T16:47:04;1.88;;;1.23;;
47603;SDS011;33326;51.116;6.900;2022-10-16T16:52:06;4.95;;;1.30;;
47603;SDS011;33326;51.116;6.900;2022-10-16T16:57:10;4.85;;;1.55;;
47603;SDS011;33326;51.116;6.900;2022-10-16T17:02:12;1.98;;;1.02;;
47603;SDS011;33326;51.116;6.900;2022-10-16T17:07:15;3.58;;;1.20;;
47603;SDS011;33326;51.116;6.900;2022-10-16T17:12:20;1.67;;;1.25;;
47603;SDS011;33326;51.116;6.900;2022-10-16T17:17:26;4.43;;;1.20;;
47603;SDS011;33326;51.116;6.900;2022-10-16T17:22:28;2.22;;;1.20;;
47603;SDS011;33326;51.116;6.900;2022-10-16T17:27:36;5.88;;;1.15;;
47603;SDS011;33326;51.116;6.900;2022-10-16T17:32:45;2.00;;;1.00;;
47603;SDS011;33326;51.116;6.900;2022-10-16T17:37:52;1.63;;;0.90;;
47603;SDS011;33326;51.116;6.900;2022-10-16T17:43:09;3.78;;;1.05;;
47603;SDS011;33326;51.116;6.900;2022-10-16T17:48:30;3.38;;;1.27;;
47603;SDS011;33326;51.116;6.900;2022-10-16T17:53:59;4.78;;;1.45;;
47603;SDS011;33326;51.116;6.900;2022-10-16T17:59:20;4.30;;;1.27;;
47603;SDS011;33326;51.116;6.900;2022-10-16T18:04:32;4.13;;;1.27;;
47603;SDS011;33326;51.116;6.900;2022-10-16T18:09:34;3.28;;;1.10;;
47603;SDS011;33326;51.116;6.900;2022-10-16T18:14:37;4.40;;;1.48;;
47603;SDS011;33326;51.116;6.900;2022-10-16T18:19:39;2.90;;;1.20;;
47603;SDS011;33326;51.116;6.900;2022-10-16T18:24:41;2.92;;;1.30;;
47603;SDS011;33326;51.116;6.900;2022-10-16T18:29:44;2.75;;;1.00;;
47603;SDS011;33326;51.116;6.900;2022-10-16T18:34:46;3.15;;;1.40;;
47603;SDS011;33326;51.116;6.900;2022-10-16T18:39:48;2.67;;;1.20;;
47603;SDS011;33326;51.116;6.900;2022-10-16T18:44:51;2.05;;;1.48;;
47603;SDS011;33326;51.116;6.900;2022-10-16T18:49:53;3.67;;;1.30;;
47603;SDS011;33326;51.116;6.900;2022-10-16T18:54:56;5.25;;;1.73;;
47603;SDS011;33326;51.116;6.900;2022-10-16T18:59:59;2.60;;;1.38;;
47603;SDS011;33326;51.116;6.900;2022-10-16T19:05:01;4.45;;;1.65;;
47603;SDS011;33326;51.116;6.900;2022-10-16T19:10:03;3.38;;;1.50;;
47603;SDS011;33326;51.116;6.900;2022-10-16T19:15:08;4.95;;;1.38;;
47603;SDS011;33326;51.116;6.900;2022-10-16T19:20:10;3.35;;;1.50;;
47603;SDS011;33326;51.116;6.900;2022-10-16T19:25:12;4.03;;;1.55;;
47603;SDS011;33326;51.116;6.900;2022-10-16T19:30:16;4.35;;;1.55;;
47603;SDS011;33326;51.116;6.900;2022-10-16T19:35:19;4.93;;;1.77;;
47603;SDS011;33326;51.116;6.900;2022-10-16T19:40:22;6.30;;;1.92;;
47603;SDS011;33326;51.116;6.900;2022-10-16T19:45:26;3.55;;;1.90;;
47603;SDS011;33326;51.116;6.900;2022-10-16T19:50:27;2.03;;;1.58;;
47603;SDS011;33326;51.116;6.900;2022-10-16T19:55:29;2.03;;;1.50;;
47603;SDS011;33326;51.116;6.900;2022-10-16T20:00:33;4.75;;;2.03;;
47603;SDS011;33326;51.116;6.900;2022-10-16T20:05:35;3.75;;;1.77;;
47603;SDS011;33326;51.116;6.900;2022-10-16T20:10:36;7.80;;;2.08;;
47603;SDS011;33326;51.116;6.900;2022-10-16T20:15:40;4.75;;;2.00;;
47603;SDS011;33326;51.116;6.900;2022-10-16T20:20:43;2.60;;;1.58;;
47603;SDS011;33326;51.116;6.900;2022-10-16T20:25:46;2.75;;;1.70;;
47603;SDS011;33326;51.116;6.900;2022-10-16T20:30:49;4.57;;;2.03;;
47603;SDS011;33326;51.116;6.900;2022-10-16T20:35:51;6.13;;;2.55;;
47603;SDS011;33326;51.116;6.900;2022-10-16T20:40:53;3.13;;;1.88;;
47603;SDS011;33326;51.116;6.900;2022-10-16T20:45:59;3.53;;;1.90;;
47603;SDS011;33326;51.116;6.900;2022-10-16T20:51:09;2.85;;;1.70;;
47603;SDS011;33326;51.116;6.900;2022-10-16T20:56:11;4.53;;;1.88;;
47603;SDS011;33326;51.116;6.900;2022-10-16T21:01:16;3.10;;;2.03;;
47603;SDS011;33326;51.116;6.900;2022-10-16T21:06:19;6.22;;;2.00;;
47603;SDS011;33326;51.116;6.900;2022-10-16T21:11:22;3.53;;;2.00;;
47603;SDS011;33326;51.116;6.900;2022-10-16T21:16:28;3.78;;;2.60;;
47603;SDS011;33326;51.116;6.900;2022-10-16T21:21:31;4.45;;;2.72;;
47603;SDS011;33326;51.116;6.900;2022-10-16T21:26:34;4.82;;;2.25;;
47603;SDS011;33326;51.116;6.900;2022-10-16T21:31:37;3.33;;;2.72;;
47603;SDS011;33326;51.116;6.900;2022-10-16T21:36:40;3.05;;;2.60;;
47603;SDS011;33326;51.116;6.900;2022-10-16T21:41:44;6.35;;;2.70;;
47603;SDS011;33326;51.116;6.900;2022-10-16T21:46:49;6.07;;;2.95;;
47603;SDS011;33326;51.116;6.900;2022-10-16T21:51:51;5.50;;;3.20;;
47603;SDS011;33326;51.116;6.900;2022-10-16T21:56:52;6.63;;;3.47;;
47603;SDS011;33326;51.116;6.900;2022-10-16T22:01:56;5.18;;;3.05;;
47603;SDS011;33326;51.116;6.900;2022-10-16T22:06:59;6.13;;;3.28;;
47603;SDS011;33326;51.116;6.900;2022-10-16T22:12:01;6.15;;;3.78;;
47603;SDS011;33326;51.116;6.900;2022-10-16T22:17:04;9.27;;;4.07;;
47603;SDS011;33326;51.116;6.900;2022-10-16T22:22:06;5.43;;;4.30;;
47603;SDS011;33326;51.116;6.900;2022-10-16T22:27:08;8.38;;;4.60;;
47603;SDS011;33326;51.116;6.900;2022-10-16T22:32:11;8.13;;;4.32;;
47603;SDS011;33326;51.116;6.900;2022-10-16T22:37:13;7.85;;;4.53;;
47603;SDS011;33326;51.116;6.900;2022-10-16T22:42:15;6.53;;;4.80;;
47603;SDS011;33326;51.116;6.900;2022-10-16T22:47:18;8.23;;;4.70;;
47603;SDS011;33326;51.116;6.900;2022-10-16T22:52:20;9.00;;;5.03;;
47603;SDS011;33326;51.116;6.900;2022-10-16T22:57:21;8.18;;;4.82;;
47603;SDS011;33326;51.116;6.900;2022-10-16T23:02:25;8.98;;;5.53;;
47603;SDS011;33326;51.116;6.900;2022-10-16T23:07:26;7.07;;;5.18;;
47603;SDS011;33326;51.116;6.900;2022-10-16T23:12:28;5.97;;;5.20;;
47603;SDS011;33326;51.116;6.900;2022-10-16T23:17:31;8.80;;;5.45;;
47603;SDS011;33326;51.116;6.900;2022-10-16T23:22:33;7.38;;;5.25;;
47603;SDS011;33326;51.116;6.900;2022-10-16T23:27:35;8.63;;;4.90;;
47603;SDS011;33326;51.116;6.900;2022-10-16T23:32:38;8.60;;;5.05;;
47603;SDS011;33326;51.116;6.900;2022-10-16T23:37:40;10.55;;;5.50;;
47603;SDS011;33326;51.116;6.900;2022-10-16T23:42:42;12.48;;;5.20;;
47603;SDS011;33326;51.116;6.900;2022-10-16T23:47:45;7.38;;;5.13;;
47603;SDS011;33326;51.116;6.900;2022-10-16T23:52:49;9.40;;;4.45;;
47603;SDS011;33326;51.116;6.900;2022-10-16T23:57:51;9.73;;;4.90;;
